sensor_id;sensor_type;location;lat;lon;timestamp;pressure;altitude;pressure_sealevel;temperature;humidity
70015;BME280;57358;51.094;6.760;2023-04-07T00:01:59;100892.94;;;7.48;100.00
70015;BME280;57358;51.094;6.760;2023-04-07T00:04:26;100894.63;;;7.49;100.00
70015;BME280;57358;51.094;6.760;2023-04-07T00:06:53;100844.38;;;7.19;100.00
70015;BME280;57358;51.094;6.760;2023-04-07T00:09:20;100889.41;;;7.49;100.00
70015;BME280;57358;51.094;6.760;2023-04-07T00:11:46;100890.22;;;7.51;100.00
70015;BME280;57358;51.094;6.760;2023-04-07T00:14:13;100850.25;;;7.26;100.00
70015;BME280;57358;51.094;6.760;2023-04-07T00:16:40;100897.91;;;7.56;100.00
70015;BME280;57358;51.094;6.760;2023-04-07T00:19:06;100897.94;;;7.54;100.00
70015;BME280;57358;51.094;6.760;2023-04-07T00:21:33;100851.94;;;7.27;100.00
70015;BME280;57358;51.094;6.760;2023-04-07T00:23:59;100907.47;;;7.55;100.00
70015;BME280;57358;51.094;6.760;2023-04-07T00:26:26;100891.22;;;7.47;100.00
70015;BME280;57358;51.094;6.760;2023-04-07T00:28:57;100832.34;;;7.15;100.00
70015;BME280;57358;51.094;6.760;2023-04-07T00:31:24;100902.31;;;7.54;100.00
70015;BME280;57358;51.094;6.760;2023-04-07T00:33:51;100903.97;;;7.56;100.00
70015;BME280;57358;51.094;6.760;2023-04-07T00:36:18;100815.50;;;7.00;100.00
70015;BME280;57358;51.094;6.760;2023-04-07T00:38:44;100898.16;;;7.48;100.00
70015;BME280;57358;51.094;6.760;2023-04-07T00:41:11;100902.38;;;7.52;100.00
70015;BME280;57358;51.094;6.760;2023-04-07T00:43:37;100858.22;;;7.21;100.00
70015;BME280;57358;51.094;6.760;2023-04-07T00:46:04;100896.22;;;7.53;100.00
70015;BME280;57358;51.094;6.760;2023-04-07T00:48:30;100760.84;;;6.72;100.00
70015;BME280;57358;51.094;6.760;2023-04-07T00:50:57;100900.34;;;7.61;100.00
70015;BME280;57358;51.094;6.760;2023-04-07T00:53:23;100810.00;;;7.08;100.00
70015;BME280;57358;51.094;6.760;2023-04-07T00:55:50;100849.00;;;7.36;100.00
70015;BME280;57358;51.094;6.760;2023-04-07T00:58:16;100899.31;;;7.65;100.00
70015;BME280;57358;51.094;6.760;2023-04-07T01:00:48;100833.66;;;7.27;100.00
70015;BME280;57358;51.094;6.760;2023-04-07T01:03:26;100900.19;;;7.64;100.00
70015;BME280;57358;51.094;6.760;2023-04-07T01:06:00;100798.47;;;7.13;100.00
70015;BME280;57358;51.094;6.760;2023-04-07T01:14:05;100873.34;;;7.36;100.00
70015;BME280;57358;51.094;6.760;2023-04-07T01:16:36;100887.50;;;7.54;100.00
70015;BME280;57358;51.094;6.760;2023-04-07T01:19:14;100879.47;;;7.59;100.00
70015;BME280;57358;51.094;6.760;2023-04-07T01:21:43;100882.94;;;7.59;100.00
70015;BME280;57358;51.094;6.760;2023-04-07T01:24:35;100797.63;;;7.13;100.00
70015;BME280;57358;51.094;6.760;2023-04-07T01:27:27;100867.50;;;7.53;100.00
70015;BME280;57358;51.094;6.760;2023-04-07T01:30:00;100784.69;;;7.10;100.00
70015;BME280;57358;51.094;6.760;2023-04-07T01:32:29;100887.84;;;7.69;100.00
70015;BME280;57358;51.094;6.760;2023-04-07T01:34:57;100887.72;;;7.72;100.00
70015;BME280;57358;51.094;6.760;2023-04-07T01:37:25;100887.03;;;7.67;100.00
70015;BME280;57358;51.094;6.760;2023-04-07T01:39:52;100887.66;;;7.73;100.00
70015;BME280;57358;51.094;6.760;2023-04-07T01:42:20;100810.91;;;7.30;100.00
70015;BME280;57358;51.094;6.760;2023-04-07T01:44:47;100886.63;;;7.77;100.00
70015;BME280;57358;51.094;6.760;2023-04-07T01:47:14;100876.31;;;7.74;100.00
70015;BME280;57358;51.094;6.760;2023-04-07T01:49:42;100878.09;;;7.74;100.00
70015;BME280;57358;51.094;6.760;2023-04-07T01:52:10;100884.91;;;7.78;100.00
70015;BME280;57358;51.094;6.760;2023-04-07T01:54:36;100822.66;;;7.42;100.00
70015;BME280;57358;51.094;6.760;2023-04-07T01:57:03;100891.53;;;7.87;100.00
70015;BME280;57358;51.094;6.760;2023-04-07T01:59:29;100889.75;;;7.87;100.00
70015;BME280;57358;51.094;6.760;2023-04-07T02:01:56;100807.16;;;7.37;100.00
70015;BME280;57358;51.094;6.760;2023-04-07T02:04:34;100889.00;;;7.84;100.00
70015;BME280;57358;51.094;6.760;2023-04-07T02:07:08;100881.13;;;7.85;100.00
70015;BME280;57358;51.094;6.760;2023-04-07T02:09:38;100890.69;;;7.86;100.00
70015;BME280;57358;51.094;6.760;2023-04-07T02:12:07;100880.47;;;7.80;100.00
70015;BME280;57358;51.094;6.760;2023-04-07T02:14:35;100849.69;;;7.65;100.00
70015;BME280;57358;51.094;6.760;2023-04-07T02:17:02;100926.34;;;7.87;100.00
70015;BME280;57358;51.094;6.760;2023-04-07T02:19:29;100885.44;;;7.86;100.00
70015;BME280;57358;51.094;6.760;2023-04-07T02:21:56;100887.00;;;7.92;100.00
70015;BME280;57358;51.094;6.760;2023-04-07T02:24:24;100885.03;;;7.97;100.00
70015;BME280;57358;51.094;6.760;2023-04-07T02:26:50;100881.06;;;7.87;100.00
70015;BME280;57358;51.094;6.760;2023-04-07T02:29:17;100823.97;;;7.54;100.00
70015;BME280;57358;51.094;6.760;2023-04-07T02:31:43;100894.59;;;7.98;100.00
70015;BME280;57358;51.094;6.760;2023-04-07T02:34:10;100891.22;;;7.94;100.00
70015;BME280;57358;51.094;6.760;2023-04-07T02:36:36;100891.09;;;7.97;100.00
70015;BME280;57358;51.094;6.760;2023-04-07T02:39:03;100887.00;;;7.92;100.00
70015;BME280;57358;51.094;6.760;2023-04-07T02:41:29;100874.72;;;7.94;100.00
70015;BME280;57358;51.094;6.760;2023-04-07T02:43:55;100715.53;;;6.98;100.00
70015;BME280;57358;51.094;6.760;2023-04-07T02:46:22;100886.50;;;8.04;100.00
70015;BME280;57358;51.094;6.760;2023-04-07T02:48:49;100853.41;;;7.81;100.00
70015;BME280;57358;51.094;6.760;2023-04-07T02:51:16;100899.59;;;8.04;100.00
70015;BME280;57358;51.094;6.760;2023-04-07T02:53:43;100899.63;;;8.03;100.00
70015;BME280;57358;51.094;6.760;2023-04-07T02:56:09;100898.72;;;8.04;100.00
70015;BME280;57358;51.094;6.760;2023-04-07T02:58:35;100895.38;;;8.00;100.00
70015;BME280;57358;51.094;6.760;2023-04-07T03:01:02;100901.31;;;8.04;100.00
70015;BME280;57358;51.094;6.760;2023-04-07T03:03:29;100898.25;;;8.16;100.00
70015;BME280;57358;51.094;6.760;2023-04-07T03:05:55;100908.94;;;8.10;100.00
70015;BME280;57358;51.094;6.760;2023-04-07T03:08:22;100895.38;;;8.00;100.00
70015;BME280;57358;51.094;6.760;2023-04-07T03:10:49;100904.38;;;8.15;100.00
70015;BME280;57358;51.094;6.760;2023-04-07T03:13:15;100906.09;;;8.16;100.00
70015;BME280;57358;51.094;6.760;2023-04-07T03:15:44;100896.44;;;8.18;100.00
70015;BME280;57358;51.094;6.760;2023-04-07T03:18:11;100897.56;;;8.11;100.00
70015;BME280;57358;51.094;6.760;2023-04-07T03:20:37;100900.97;;;8.13;100.00
70015;BME280;57358;51.094;6.760;2023-04-07T03:23:07;100894.06;;;8.12;100.00
70015;BME280;57358;51.094;6.760;2023-04-07T03:25:33;100904.53;;;8.12;100.00
70015;BME280;57358;51.094;6.760;2023-04-07T03:28:00;100906.34;;;8.10;100.00
70015;BME280;57358;51.094;6.760;2023-04-07T03:30:26;100886.75;;;7.98;100.00
70015;BME280;57358;51.094;6.760;2023-04-07T03:32:52;100899.22;;;8.13;100.00
70015;BME280;57358;51.094;6.760;2023-04-07T03:35:19;100903.84;;;8.07;100.00
70015;BME280;57358;51.094;6.760;2023-04-07T03:37:45;100907.66;;;7.98;100.00
70015;BME280;57358;51.094;6.760;2023-04-07T03:40:12;100907.66;;;7.98;100.00
70015;BME280;57358;51.094;6.760;2023-04-07T03:42:38;100890.69;;;7.86;100.00
70015;BME280;57358;51.094;6.760;2023-04-07T03:45:05;100925.38;;;7.90;100.00
70015;BME280;57358;51.094;6.760;2023-04-07T03:47:31;100789.97;;;7.32;100.00
70015;BME280;57358;51.094;6.760;2023-04-07T03:49:58;100869.38;;;7.73;100.00
70015;BME280;57358;51.094;6.760;2023-04-07T03:52:24;100912.00;;;7.97;100.00
70015;BME280;57358;51.094;6.760;2023-04-07T03:54:50;100907.94;;;7.90;100.00
70015;BME280;57358;51.094;6.760;2023-04-07T03:57:17;100911.16;;;7.97;100.00
70015;BME280;57358;51.094;6.760;2023-04-07T03:59:43;100912.16;;;7.94;100.00
70015;BME280;57358;51.094;6.760;2023-04-07T04:02:10;100884.16;;;7.74;100.00
70015;BME280;57358;51.094;6.760;2023-04-07T04:04:36;100915.56;;;7.96;100.00
70015;BME280;57358;51.094;6.760;2023-04-07T04:07:03;100911.22;;;7.95;100.00
70015;BME280;57358;51.094;6.760;2023-04-07T04:09:29;100914.16;;;7.88;100.00
70015;BME280;57358;51.094;6.760;2023-04-07T04:11:56;100928.00;;;7.90;100.00
70015;BME280;57358;51.094;6.760;2023-04-07T04:14:22;100926.22;;;7.90;100.00
70015;BME280;57358;51.094;6.760;2023-04-07T04:16:49;100760.91;;;6.94;100.00
70015;BME280;57358;51.094;6.760;2023-04-07T04:19:15;100862.91;;;7.36;100.00
70015;BME280;57358;51.094;6.760;2023-04-07T04:21:42;100927.03;;;7.92;100.00
70015;BME280;57358;51.094;6.760;2023-04-07T04:24:09;100925.81;;;7.77;100.00
70015;BME280;57358;51.094;6.760;2023-04-07T04:26:35;100934.59;;;7.76;100.00
70015;BME280;57358;51.094;6.760;2023-04-07T04:29:01;100932.75;;;7.78;100.00
70015;BME280;57358;51.094;6.760;2023-04-07T04:31:28;100935.47;;;7.75;100.00
70015;BME280;57358;51.094;6.760;2023-04-07T04:33:55;100940.69;;;7.75;100.00
70015;BME280;57358;51.094;6.760;2023-04-07T04:36:21;100939.91;;;7.73;100.00
70015;BME280;57358;51.094;6.760;2023-04-07T04:38:48;100939.06;;;7.73;100.00
70015;BME280;57358;51.094;6.760;2023-04-07T04:41:14;100943.38;;;7.74;100.00
70015;BME280;57358;51.094;6.760;2023-04-07T04:43:43;100939.91;;;7.73;100.00
70015;BME280;57358;51.094;6.760;2023-04-07T04:46:10;100952.81;;;7.78;100.00
70015;BME280;57358;51.094;6.760;2023-04-07T04:48:37;100959.97;;;7.73;100.00
70015;BME280;57358;51.094;6.760;2023-04-07T04:51:03;100955.56;;;7.73;100.00
70015;BME280;57358;51.094;6.760;2023-04-07T04:53:30;100958.97;;;7.75;100.00
70015;BME280;57358;51.094;6.760;2023-04-07T04:55:56;100951.00;;;7.80;100.00
70015;BME280;57358;51.094;6.760;2023-04-07T04:58:23;100960.66;;;7.78;100.00
70015;BME280;57358;51.094;6.760;2023-04-07T05:00:52;100967.63;;;7.77;100.00
70015;BME280;57358;51.094;6.760;2023-04-07T05:03:25;100898.50;;;7.39;100.00
70015;BME280;57358;51.094;6.760;2023-04-07T05:05:55;100975.69;;;7.71;100.00
70015;BME280;57358;51.094;6.760;2023-04-07T05:08:21;100954.44;;;7.57;100.00
70015;BME280;57358;51.094;6.760;2023-04-07T05:10:48;100981.59;;;7.76;100.00
70015;BME280;57358;51.094;6.760;2023-04-07T05:13:14;100921.81;;;7.44;100.00
70015;BME280;57358;51.094;6.760;2023-04-07T05:15:41;100986.09;;;7.73;100.00
70015;BME280;57358;51.094;6.760;2023-04-07T05:18:07;100982.69;;;7.71;100.00
70015;BME280;57358;51.094;6.760;2023-04-07T05:20:34;100991.56;;;7.65;100.00
70015;BME280;57358;51.094;6.760;2023-04-07T05:23:00;100995.03;;;7.66;100.00
70015;BME280;57358;51.094;6.760;2023-04-07T05:25:27;100977.25;;;7.52;100.00
70015;BME280;57358;51.094;6.760;2023-04-07T05:27:53;100988.22;;;7.62;100.00
70015;BME280;57358;51.094;6.760;2023-04-07T05:30:20;101004.53;;;7.68;100.00
70015;BME280;57358;51.094;6.760;2023-04-07T05:32:46;100939.94;;;7.23;100.00
70015;BME280;57358;51.094;6.760;2023-04-07T05:35:13;100956.72;;;7.41;100.00
70015;BME280;57358;51.094;6.760;2023-04-07T05:37:39;101008.97;;;7.66;100.00
70015;BME280;57358;51.094;6.760;2023-04-07T05:40:07;101009.84;;;7.65;100.00
70015;BME280;57358;51.094;6.760;2023-04-07T05:42:33;100977.66;;;7.39;100.00
70015;BME280;57358;51.094;6.760;2023-04-07T05:45:00;101015.22;;;7.62;100.00
70015;BME280;57358;51.094;6.760;2023-04-07T05:47:26;101014.66;;;7.52;100.00
70015;BME280;57358;51.094;6.760;2023-04-07T05:49:53;100999.88;;;7.51;100.00
70015;BME280;57358;51.094;6.760;2023-04-07T05:52:19;100968.66;;;7.23;100.00
70015;BME280;57358;51.094;6.760;2023-04-07T05:54:46;100961.38;;;7.33;100.00
70015;BME280;57358;51.094;6.760;2023-04-07T05:57:13;100977.16;;;7.30;100.00
70015;BME280;57358;51.094;6.760;2023-04-07T05:59:39;101021.44;;;7.58;100.00
70015;BME280;57358;51.094;6.760;2023-04-07T06:02:06;101025.66;;;7.62;100.00
70015;BME280;57358;51.094;6.760;2023-04-07T06:04:32;100857.13;;;6.51;100.00
70015;BME280;57358;51.094;6.760;2023-04-07T06:07:01;100986.94;;;7.23;100.00
70015;BME280;57358;51.094;6.760;2023-04-07T06:09:28;101032.69;;;7.60;100.00
70015;BME280;57358;51.094;6.760;2023-04-07T06:11:54;101040.94;;;7.48;100.00
70015;BME280;57358;51.094;6.760;2023-04-07T06:14:22;100995.44;;;7.30;100.00
70015;BME280;57358;51.094;6.760;2023-04-07T06:16:48;101021.13;;;7.42;100.00
70015;BME280;57358;51.094;6.760;2023-04-07T06:19:15;101048.38;;;7.60;100.00
70015;BME280;57358;51.094;6.760;2023-04-07T06:21:41;101043.94;;;7.35;100.00
70015;BME280;57358;51.094;6.760;2023-04-07T06:24:07;100856.06;;;6.30;100.00
70015;BME280;57358;51.094;6.760;2023-04-07T06:26:34;101043.28;;;7.55;100.00
70015;BME280;57358;51.094;6.760;2023-04-07T06:29:01;101051.88;;;7.59;100.00
70015;BME280;57358;51.094;6.760;2023-04-07T06:31:27;101062.44;;;7.56;100.00
70015;BME280;57358;51.094;6.760;2023-04-07T06:33:54;101066.56;;;7.62;100.00
70015;BME280;57358;51.094;6.760;2023-04-07T06:36:20;101061.22;;;7.66;100.00
70015;BME280;57358;51.094;6.760;2023-04-07T06:38:48;101066.41;;;7.68;100.00
70015;BME280;57358;51.094;6.760;2023-04-07T06:41:15;100978.16;;;7.26;100.00
70015;BME280;57358;51.094;6.760;2023-04-07T06:43:48;101069.72;;;7.71;100.00
70015;BME280;57358;51.094;6.760;2023-04-07T06:46:17;101061.84;;;7.73;100.00
70015;BME280;57358;51.094;6.760;2023-04-07T06:48:44;101063.22;;;7.83;100.00
70015;BME280;57358;51.094;6.760;2023-04-07T06:51:11;101069.94;;;7.65;100.00
70015;BME280;57358;51.094;6.760;2023-04-07T06:53:37;101068.88;;;7.71;100.00
70015;BME280;57358;51.094;6.760;2023-04-07T06:56:10;100939.97;;;6.96;100.00
70015;BME280;57358;51.094;6.760;2023-04-07T06:58:37;101046.19;;;7.48;100.00
70015;BME280;57358;51.094;6.760;2023-04-07T07:01:04;101077.78;;;7.65;100.00
70015;BME280;57358;51.094;6.760;2023-04-07T07:03:32;101076.97;;;7.90;100.00
70015;BME280;57358;51.094;6.760;2023-04-07T07:05:59;101069.16;;;7.88;100.00
70015;BME280;57358;51.094;6.760;2023-04-07T07:08:27;101052.91;;;7.80;100.00
70015;BME280;57358;51.094;6.760;2023-04-07T07:10:54;101019.56;;;7.62;100.00
70015;BME280;57358;51.094;6.760;2023-04-07T07:13:23;101087.09;;;7.97;100.00
70015;BME280;57358;51.094;6.760;2023-04-07T07:15:50;101096.75;;;7.95;100.00
70015;BME280;57358;51.094;6.760;2023-04-07T07:18:17;101084.63;;;7.94;100.00
70015;BME280;57358;51.094;6.760;2023-04-07T07:20:44;101023.50;;;7.73;100.00
70015;BME280;57358;51.094;6.760;2023-04-07T07:23:11;101060.88;;;8.01;100.00
70015;BME280;57358;51.094;6.760;2023-04-07T07:25:37;101075.72;;;8.00;100.00
70015;BME280;57358;51.094;6.760;2023-04-07T07:28:04;101076.06;;;7.89;100.00
70015;BME280;57358;51.094;6.760;2023-04-07T07:30:30;101090.75;;;7.93;100.00
70015;BME280;57358;51.094;6.760;2023-04-07T07:32:57;101098.50;;;7.96;100.00
70015;BME280;57358;51.094;6.760;2023-04-07T07:35:23;101098.94;;;8.08;100.00
70015;BME280;57358;51.094;6.760;2023-04-07T07:37:51;101070.00;;;7.89;100.00
70015;BME280;57358;51.094;6.760;2023-04-07T07:40:17;101076.56;;;8.01;100.00
70015;BME280;57358;51.094;6.760;2023-04-07T07:42:45;101112.22;;;8.27;100.00
70015;BME280;57358;51.094;6.760;2023-04-07T07:45:12;101109.41;;;8.08;100.00
70015;BME280;57358;51.094;6.760;2023-04-07T07:47:39;101105.72;;;8.13;100.00
70015;BME280;57358;51.094;6.760;2023-04-07T07:50:06;101059.78;;;7.83;100.00
70015;BME280;57358;51.094;6.760;2023-04-07T07:52:33;101115.75;;;8.26;100.00
70015;BME280;57358;51.094;6.760;2023-04-07T07:55:02;101045.72;;;7.85;100.00
70015;BME280;57358;51.094;6.760;2023-04-07T07:57:28;101086.69;;;8.33;100.00
70015;BME280;57358;51.094;6.760;2023-04-07T07:59:56;101052.66;;;8.11;100.00
70015;BME280;57358;51.094;6.760;2023-04-07T08:02:22;101060.38;;;8.14;100.00
70015;BME280;57358;51.094;6.760;2023-04-07T08:04:56;101114.16;;;8.47;100.00
70015;BME280;57358;51.094;6.760;2023-04-07T08:07:22;101132.00;;;8.59;100.00
70015;BME280;57358;51.094;6.760;2023-04-07T08:09:49;101126.03;;;8.79;100.00
70015;BME280;57358;51.094;6.760;2023-04-07T08:12:15;101124.06;;;8.62;100.00
70015;BME280;57358;51.094;6.760;2023-04-07T08:14:42;101132.34;;;8.73;100.00
70015;BME280;57358;51.094;6.760;2023-04-07T08:17:08;101137.38;;;8.56;100.00
70015;BME280;57358;51.094;6.760;2023-04-07T08:19:35;101142.16;;;8.68;100.00
70015;BME280;57358;51.094;6.760;2023-04-07T08:22:01;101145.84;;;8.63;100.00
70015;BME280;57358;51.094;6.760;2023-04-07T08:24:30;101136.34;;;8.60;100.00
70015;BME280;57358;51.094;6.760;2023-04-07T08:26:57;101142.44;;;8.84;100.00
70015;BME280;57358;51.094;6.760;2023-04-07T08:29:23;101096.50;;;8.52;100.00
70015;BME280;57358;51.094;6.760;2023-04-07T08:31:49;101139.06;;;8.81;100.00
70015;BME280;57358;51.094;6.760;2023-04-07T08:34:16;101052.28;;;8.22;100.00
70015;BME280;57358;51.094;6.760;2023-04-07T08:36:44;101121.13;;;8.70;100.00
70015;BME280;57358;51.094;6.760;2023-04-07T08:39:10;101082.97;;;8.41;100.00
70015;BME280;57358;51.094;6.760;2023-04-07T08:41:38;101151.72;;;9.15;100.00
70015;BME280;57358;51.094;6.760;2023-04-07T08:44:06;101120.81;;;8.79;100.00
70015;BME280;57358;51.094;6.760;2023-04-07T08:46:33;101093.47;;;8.64;100.00
70015;BME280;57358;51.094;6.760;2023-04-07T08:49:00;101140.44;;;8.91;100.00
70015;BME280;57358;51.094;6.760;2023-04-07T08:51:28;101178.75;;;8.92;100.00
70015;BME280;57358;51.094;6.760;2023-04-07T08:54:09;101124.22;;;8.81;100.00
70015;BME280;57358;51.094;6.760;2023-04-07T08:56:40;101147.53;;;8.64;100.00
70015;BME280;57358;51.094;6.760;2023-04-07T08:59:13;101174.22;;;8.73;100.00
70015;BME280;57358;51.094;6.760;2023-04-07T09:01:40;101166.38;;;8.73;100.00
70015;BME280;57358;51.094;6.760;2023-04-07T09:04:08;101162.50;;;8.60;100.00
70015;BME280;57358;51.094;6.760;2023-04-07T09:06:35;101182.88;;;8.75;100.00
70015;BME280;57358;51.094;6.760;2023-04-07T09:09:03;101147.75;;;8.57;100.00
70015;BME280;57358;51.094;6.760;2023-04-07T09:11:37;101137.63;;;8.72;100.00
70015;BME280;57358;51.094;6.760;2023-04-07T09:14:04;101177.03;;;8.92;100.00
70015;BME280;57358;51.094;6.760;2023-04-07T09:16:31;101189.03;;;8.98;100.00
70015;BME280;57358;51.094;6.760;2023-04-07T09:18:58;101157.66;;;8.73;100.00
70015;BME280;57358;51.094;6.760;2023-04-07T09:21:25;101184.50;;;9.02;100.00
70015;BME280;57358;51.094;6.760;2023-04-07T09:23:52;101184.13;;;8.89;100.00
70015;BME280;57358;51.094;6.760;2023-04-07T09:26:26;101174.50;;;8.89;100.00
70015;BME280;57358;51.094;6.760;2023-04-07T09:28:58;101095.31;;;8.37;100.00
70015;BME280;57358;51.094;6.760;2023-04-07T09:34:34;101190.16;;;8.67;100.00
70015;BME280;57358;51.094;6.760;2023-04-07T09:37:01;101155.59;;;8.57;100.00
70015;BME280;57358;51.094;6.760;2023-04-07T09:39:28;101183.31;;;8.63;100.00
70015;BME280;57358;51.094;6.760;2023-04-07T09:41:56;101191.50;;;8.77;100.00
70015;BME280;57358;51.094;6.760;2023-04-07T09:44:24;101192.53;;;8.73;100.00
70015;BME280;57358;51.094;6.760;2023-04-07T09:46:57;101193.47;;;8.72;100.00
70015;BME280;57358;51.094;6.760;2023-04-07T09:49:25;101189.13;;;8.71;100.00
70015;BME280;57358;51.094;6.760;2023-04-07T09:52:02;101189.88;;;8.50;100.00
70015;BME280;57358;51.094;6.760;2023-04-07T09:54:37;101200.97;;;8.58;100.00
70015;BME280;57358;51.094;6.760;2023-04-07T09:57:06;101203.13;;;8.70;100.00
70015;BME280;57358;51.094;6.760;2023-04-07T09:59:35;101194.13;;;8.77;100.00
70015;BME280;57358;51.094;6.760;2023-04-07T10:02:02;101205.53;;;9.00;100.00
70015;BME280;57358;51.094;6.760;2023-04-07T10:04:29;101194.59;;;8.89;100.00
70015;BME280;57358;51.094;6.760;2023-04-07T10:06:57;101137.56;;;8.50;100.00
70015;BME280;57358;51.094;6.760;2023-04-07T10:09:26;101185.31;;;9.04;100.00
70015;BME280;57358;51.094;6.760;2023-04-07T10:11:54;101198.09;;;9.11;100.00
70015;BME280;57358;51.094;6.760;2023-04-07T10:14:25;101186.84;;;9.09;100.00
70015;BME280;57358;51.094;6.760;2023-04-07T10:16:52;101195.41;;;9.36;100.00
70015;BME280;57358;51.094;6.760;2023-04-07T10:19:20;101192.41;;;9.46;100.00
70015;BME280;57358;51.094;6.760;2023-04-07T10:21:50;101131.38;;;9.22;100.00
70015;BME280;57358;51.094;6.760;2023-04-07T10:24:32;101191.31;;;9.51;100.00
70015;BME280;57358;51.094;6.760;2023-04-07T10:27:06;101199.97;;;9.53;100.00
70015;BME280;57358;51.094;6.760;2023-04-07T10:29:36;101194.88;;;9.93;100.00
70015;BME280;57358;51.094;6.760;2023-04-07T10:32:05;101124.97;;;9.51;100.00
70015;BME280;57358;51.094;6.760;2023-04-07T10:34:55;101186.91;;;9.74;100.00
70015;BME280;57358;51.094;6.760;2023-04-07T10:37:24;101011.13;;;8.51;100.00
70015;BME280;57358;51.094;6.760;2023-04-07T10:42:46;101000.69;;;8.26;100.00
70015;BME280;57358;51.094;6.760;2023-04-07T10:45:13;101194.06;;;9.48;100.00
70015;BME280;57358;51.094;6.760;2023-04-07T10:50:28;101196.25;;;10.02;100.00
70015;BME280;57358;51.094;6.760;2023-04-07T10:53:08;101199.75;;;10.23;100.00
70015;BME280;57358;51.094;6.760;2023-04-07T10:55:42;101194.63;;;9.99;100.00
70015;BME280;57358;51.094;6.760;2023-04-07T11:03:31;101102.50;;;9.23;100.00
70015;BME280;57358;51.094;6.760;2023-04-07T11:06:03;101198.19;;;9.76;100.00
70015;BME280;57358;51.094;6.760;2023-04-07T11:08:32;101135.22;;;9.35;100.00
70015;BME280;57358;51.094;6.760;2023-04-07T11:10:58;101128.66;;;9.25;100.00
70015;BME280;57358;51.094;6.760;2023-04-07T11:13:25;101185.19;;;9.52;100.00
70015;BME280;57358;51.094;6.760;2023-04-07T11:15:52;101141.44;;;9.10;100.00
70015;BME280;57358;51.094;6.760;2023-04-07T11:18:20;101195.03;;;9.46;100.00
70015;BME280;57358;51.094;6.760;2023-04-07T11:20:53;101196.69;;;9.70;100.00
70015;BME280;57358;51.094;6.760;2023-04-07T11:23:21;101195.03;;;9.68;100.00
70015;BME280;57358;51.094;6.760;2023-04-07T11:25:58;101146.47;;;9.59;100.00
70015;BME280;57358;51.094;6.760;2023-04-07T11:28:29;101181.97;;;10.29;100.00
70015;BME280;57358;51.094;6.760;2023-04-07T11:30:56;101192.25;;;10.75;100.00
70015;BME280;57358;51.094;6.760;2023-04-07T11:33:29;101189.22;;;11.03;100.00
70015;BME280;57358;51.094;6.760;2023-04-07T11:35:58;101159.84;;;10.95;100.00
70015;BME280;57358;51.094;6.760;2023-04-07T11:38:28;101162.53;;;10.74;100.00
70015;BME280;57358;51.094;6.760;2023-04-07T11:40:55;101146.84;;;10.33;100.00
70015;BME280;57358;51.094;6.760;2023-04-07T11:43:25;100989.06;;;9.43;100.00
70015;BME280;57358;51.094;6.760;2023-04-07T11:46:08;101161.75;;;10.33;100.00
70015;BME280;57358;51.094;6.760;2023-04-07T11:48:36;101179.81;;;10.60;100.00
70015;BME280;57358;51.094;6.760;2023-04-07T11:51:03;101145.75;;;10.58;100.00
70015;BME280;57358;51.094;6.760;2023-04-07T11:53:32;101147.56;;;10.76;100.00
70015;BME280;57358;51.094;6.760;2023-04-07T11:56:11;101166.94;;;10.93;100.00
70015;BME280;57358;51.094;6.760;2023-04-07T11:58:52;101165.09;;;10.95;100.00
70015;BME280;57358;51.094;6.760;2023-04-07T12:01:19;101164.59;;;11.06;100.00
70015;BME280;57358;51.094;6.760;2023-04-07T12:04:02;101148.56;;;10.93;100.00
70015;BME280;57358;51.094;6.760;2023-04-07T12:06:31;101160.69;;;10.95;100.00
70015;BME280;57358;51.094;6.760;2023-04-07T12:09:01;101129.94;;;10.97;100.00
70015;BME280;57358;51.094;6.760;2023-04-07T12:11:28;101163.50;;;11.10;100.00
70015;BME280;57358;51.094;6.760;2023-04-07T12:13:55;101158.56;;;11.23;100.00
70015;BME280;57358;51.094;6.760;2023-04-07T12:16:22;101138.91;;;10.74;100.00
70015;BME280;57358;51.094;6.760;2023-04-07T12:18:49;101163.16;;;11.17;100.00
70015;BME280;57358;51.094;6.760;2023-04-07T12:21:19;101161.06;;;11.43;100.00
70015;BME280;57358;51.094;6.760;2023-04-07T12:23:46;101150.63;;;11.42;100.00
70015;BME280;57358;51.094;6.760;2023-04-07T12:26:13;101124.75;;;11.51;99.90
70015;BME280;57358;51.094;6.760;2023-04-07T12:28:39;101124.16;;;11.27;99.41
70015;BME280;57358;51.094;6.760;2023-04-07T12:31:06;101145.00;;;11.13;100.00
70015;BME280;57358;51.094;6.760;2023-04-07T12:33:32;101104.47;;;10.62;100.00
70015;BME280;57358;51.094;6.760;2023-04-07T12:35:59;101172.78;;;11.36;100.00
70015;BME280;57358;51.094;6.760;2023-04-07T12:38:26;101151.03;;;11.15;100.00
70015;BME280;57358;51.094;6.760;2023-04-07T12:40:52;101154.97;;;11.24;100.00
70015;BME280;57358;51.094;6.760;2023-04-07T12:43:19;101106.06;;;10.85;100.00
70015;BME280;57358;51.094;6.760;2023-04-07T12:45:45;101180.06;;;10.93;100.00
70015;BME280;57358;51.094;6.760;2023-04-07T12:48:14;101171.03;;;10.61;100.00
70015;BME280;57358;51.094;6.760;2023-04-07T12:50:41;101179.97;;;10.56;100.00
70015;BME280;57358;51.094;6.760;2023-04-07T12:53:08;101190.72;;;10.30;100.00
70015;BME280;57358;51.094;6.760;2023-04-07T12:55:34;101212.88;;;10.23;100.00
70015;BME280;57358;51.094;6.760;2023-04-07T12:58:02;101203.59;;;10.14;100.00
70015;BME280;57358;51.094;6.760;2023-04-07T13:00:28;101200.47;;;10.06;100.00
70015;BME280;57358;51.094;6.760;2023-04-07T13:02:55;101223.59;;;10.38;100.00
70015;BME280;57358;51.094;6.760;2023-04-07T13:05:21;101231.84;;;10.50;100.00
70015;BME280;57358;51.094;6.760;2023-04-07T13:07:48;101212.94;;;10.21;100.00
70015;BME280;57358;51.094;6.760;2023-04-07T13:10:15;101221.31;;;10.09;100.00
70015;BME280;57358;51.094;6.760;2023-04-07T13:12:41;101171.81;;;9.81;100.00